Time;durP1;ratioP1;P1;durP2;ratioP2;P2;SDS_P1;SDS_P2;PMS_P1;PMS_P2;Temp;Humidity;BMP_temperature;BMP_pressure;BME280_temperature;BME280_humidity;BME280_pressure;Samples;Min_cycle;Max_cycle;Signal;HPM_P1;HPM_P2
2021/05/25 00:01:07;;;;;;;5.82;3.30;;;14.90;61.30;;;;;;5030297;28;20046;-67
2021/05/25 00:03:35;;;;;;;4.47;3.13;;;14.90;61.30;;;;;;5034349;28;20127;-67
2021/05/25 00:06:03;;;;;;;8.70;3.53;;;14.80;61.10;;;;;;5037110;28;20044;-66
2021/05/25 00:08:31;;;;;;;4.93;3.53;;;14.70;61.00;;;;;;5045592;28;20043;-67
2021/05/25 00:10:57;;;;;;;6.47;3.20;;;14.60;61.00;;;;;;5028318;28;20068;-67
2021/05/25 00:13:22;;;;;;;4.75;3.35;;;14.60;61.20;;;;;;5037175;28;20549;-67
2021/05/25 00:15:52;;;;;;;5.20;3.33;;;14.50;61.30;;;;;;5042357;28;20043;-67
2021/05/25 00:18:19;;;;;;;5.85;3.90;;;14.50;61.70;;;;;;5041509;28;20049;-67
2021/05/25 00:20:44;;;;;;;6.43;3.67;;;14.60;61.90;;;;;;5041292;28;20129;-67
2021/05/25 00:23:12;;;;;;;5.97;3.80;;;14.50;62.70;;;;;;5044807;28;20043;-67
2021/05/25 00:25:40;;;;;;;4.85;3.83;;;14.50;61.90;;;;;;5033797;28;20052;-67
2021/05/25 00:28:09;;;;;;;6.10;4.47;;;14.50;61.80;;;;;;5042686;28;20041;-67
2021/05/25 00:30:34;;;;;;;4.88;4.22;;;14.50;61.70;;;;;;5043981;28;20048;-67
2021/05/25 00:33:00;;;;;;;7.18;4.45;;;14.50;61.80;;;;;;5042117;28;20066;-66
2021/05/25 00:35:28;;;;;;;6.28;4.63;;;14.40;62.10;;;;;;5054618;28;20071;-67
2021/05/25 00:37:53;;;;;;;6.15;4.50;;;14.40;62.20;;;;;;5039980;28;21083;-65
2021/05/25 00:40:19;;;;;;;8.65;4.70;;;14.40;62.30;;;;;;5032447;28;20033;-67
2021/05/25 00:42:46;;;;;;;6.90;4.43;;;14.40;62.30;;;;;;5037087;28;20627;-67
2021/05/25 00:45:13;;;;;;;34.30;15.35;;;14.40;62.30;;;;;;5037954;28;20117;-67
2021/05/25 00:47:42;;;;;;;35.80;17.27;;;14.40;62.30;;;;;;5045322;28;20417;-67
2021/05/25 00:50:16;;;;;;;83.32;32.28;;;14.40;62.40;;;;;;5034464;28;20910;-67
2021/05/25 00:52:44;;;;;;;36.35;16.95;;;14.40;62.60;;;;;;5035717;28;20041;-67
2021/05/25 00:55:22;;;;;;;58.33;23.98;;;14.40;62.60;;;;;;5039979;28;20048;-67
2021/05/25 00:57:50;;;;;;;62.38;26.17;;;14.40;62.40;;;;;;5056667;28;20033;-67
2021/05/25 01:00:23;;;;;;;56.78;23.42;;;14.40;62.30;;;;;;5041040;28;20033;-67
2021/05/25 01:02:49;;;;;;;47.80;21.85;;;14.40;62.40;;;;;;5032967;28;20068;-67
2021/05/25 01:05:16;;;;;;;36.40;17.08;;;14.40;62.40;;;;;;5040886;28;20123;-67
2021/05/25 01:07:45;;;;;;;11.23;8.23;;;14.40;62.60;;;;;;5045142;28;20044;-67
2021/05/25 01:10:13;;;;;;;11.80;8.25;;;14.40;62.70;;;;;;5041294;28;20028;-67
2021/05/25 01:12:50;;;;;;;10.50;7.85;;;14.40;63.00;;;;;;5046553;28;20110;-67
2021/05/25 01:15:17;;;;;;;10.32;8.10;;;14.40;63.10;;;;;;5049460;28;20036;-67
2021/05/25 01:17:46;;;;;;;11.90;8.80;;;14.40;63.20;;;;;;5041186;28;20032;-67
2021/05/25 01:20:12;;;;;;;9.32;7.55;;;14.50;63.40;;;;;;5038023;28;20051;-67
2021/05/25 01:22:38;;;;;;;11.10;8.38;;;14.50;63.40;;;;;;5045059;28;20754;-67
2021/05/25 01:25:16;;;;;;;10.35;7.75;;;14.50;63.20;;;;;;5043943;28;20072;-67
2021/05/25 01:27:50;;;;;;;10.13;7.68;;;14.60;63.20;;;;;;5045223;28;20079;-67
2021/05/25 01:30:20;;;;;;;9.35;7.47;;;14.60;63.20;;;;;;5035825;28;20577;-67
2021/05/25 01:32:46;;;;;;;9.55;7.13;;;14.60;63.10;;;;;;5042138;28;20047;-67
2021/05/25 01:35:12;;;;;;;11.15;7.35;;;14.60;63.00;;;;;;5042569;28;20044;-67
2021/05/25 01:37:38;;;;;;;11.95;7.75;;;14.60;63.00;;;;;;5043141;28;20060;-67
2021/05/25 01:40:05;;;;;;;9.35;7.20;;;14.70;63.00;;;;;;5047480;28;20112;-67
2021/05/25 01:42:37;;;;;;;8.60;6.15;;;14.70;62.90;;;;;;5049301;28;20114;-67
2021/05/25 01:45:07;;;;;;;9.43;6.68;;;14.70;62.80;;;;;;5049218;27;20040;-67
2021/05/25 01:47:33;;;;;;;10.68;5.40;;;14.70;62.70;;;;;;5039826;28;20094;-67
2021/05/25 01:50:14;;;;;;;11.32;5.97;;;14.70;62.70;;;;;;5042346;28;20033;-67
2021/05/25 01:52:56;;;;;;;7.18;5.28;;;14.70;62.70;;;;;;5039402;28;20532;-67
2021/05/25 01:55:38;;;;;;;10.02;5.55;;;14.70;62.70;;;;;;5043748;28;20044;-66
2021/05/25 01:58:15;;;;;;;6.55;5.47;;;14.70;62.60;;;;;;5050027;28;20048;-66
2021/05/25 02:00:46;;;;;;;7.70;5.53;;;14.70;62.60;;;;;;5034006;28;20090;-66
2021/05/25 02:03:15;;;;;;;8.32;5.80;;;14.70;62.60;;;;;;5036180;28;20048;-67
2021/05/25 02:05:46;;;;;;;8.07;5.60;;;14.70;62.50;;;;;;5041701;28;20047;-67
2021/05/25 02:08:12;;;;;;;8.60;5.65;;;14.70;62.40;;;;;;5042133;28;20050;-67
2021/05/25 02:10:48;;;;;;;6.93;4.90;;;14.70;62.40;;;;;;5037698;28;20040;-67
2021/05/25 02:13:15;;;;;;;6.18;4.32;;;14.70;62.40;;;;;;5038602;28;20052;-67
2021/05/25 02:15:46;;;;;;;7.05;3.85;;;14.70;62.30;;;;;;5044595;28;20813;-67
2021/05/25 02:18:23;;;;;;;11.18;4.00;;;14.60;62.40;;;;;;5047457;28;20077;-67
2021/05/25 02:20:52;;;;;;;6.03;3.60;;;14.60;62.40;;;;;;5035999;28;20052;-67
2021/05/25 02:23:21;;;;;;;7.28;3.88;;;14.60;62.40;;;;;;5060973;28;20033;-67
2021/05/25 02:25:47;;;;;;;6.20;3.53;;;14.60;62.40;;;;;;5035024;28;20043;-68
2021/05/25 02:28:17;;;;;;;9.35;3.42;;;14.50;62.40;;;;;;5042884;28;20040;-69
2021/05/25 02:30:42;;;;;;;10.00;3.50;;;14.50;62.40;;;;;;5040322;28;20036;-69
2021/05/25 02:33:18;;;;;;;7.03;3.80;;;14.50;62.40;;;;;;5040107;28;20048;-67
2021/05/25 02:35:46;;;;;;;5.07;3.42;;;14.50;62.50;;;;;;5041821;28;20102;-68
2021/05/25 02:38:14;;;;;;;8.48;3.83;;;14.50;62.50;;;;;;5049851;28;20041;-69
2021/05/25 02:40:41;;;;;;;6.88;4.15;;;14.50;62.50;;;;;;5033062;28;20044;-69
2021/05/25 02:43:12;;;;;;;7.82;4.43;;;14.50;62.50;;;;;;5046329;28;20472;-69
2021/05/25 02:45:38;;;;;;;5.85;4.13;;;14.50;62.60;;;;;;5036866;28;20536;-69
2021/05/25 02:48:04;;;;;;;6.93;4.03;;;14.50;62.60;;;;;;5042649;28;20124;-68
2021/05/25 02:50:36;;;;;;;7.90;4.43;;;14.50;62.60;;;;;;5038150;28;20049;-69
2021/05/25 02:53:06;;;;;;;10.13;3.90;;;14.50;62.70;;;;;;5052340;28;20466;-69
2021/05/25 02:55:35;;;;;;;8.77;4.50;;;14.50;62.70;;;;;;5034880;28;20043;-69
2021/05/25 02:58:04;;;;;;;7.47;4.72;;;14.50;62.70;;;;;;5038305;28;20169;-69
2021/05/25 03:00:44;;;;;;;9.50;5.07;;;14.50;62.70;;;;;;5036515;28;22499;-69
2021/05/25 03:03:11;;;;;;;6.53;5.05;;;14.50;62.70;;;;;;5036339;28;20037;-69
2021/05/25 03:05:40;;;;;;;8.68;5.80;;;14.50;62.80;;;;;;5039602;28;20048;-69
2021/05/25 03:08:09;;;;;;;8.32;5.22;;;14.50;62.70;;;;;;5056408;28;20055;-69
2021/05/25 03:10:40;;;;;;;8.13;5.60;;;14.50;62.80;;;;;;5041642;28;20059;-68
2021/05/25 03:13:06;;;;;;;11.45;6.03;;;14.50;62.90;;;;;;5035568;28;20044;-69
2021/05/25 03:15:41;;;;;;;9.35;6.45;;;14.50;62.80;;;;;;5046533;28;20046;-68
2021/05/25 03:18:07;;;;;;;9.90;6.97;;;14.50;62.90;;;;;;5032794;28;20036;-69
2021/05/25 03:20:33;;;;;;;11.18;6.82;;;14.50;63.00;;;;;;5046941;28;20033;-68
2021/05/25 03:22:59;;;;;;;12.98;7.40;;;14.50;63.00;;;;;;5046241;28;20563;-68
2021/05/25 03:25:26;;;;;;;12.82;8.20;;;14.50;63.10;;;;;;5050312;28;20053;-69
2021/05/25 03:27:51;;;;;;;12.57;8.10;;;14.50;63.10;;;;;;5038945;28;20051;-68
2021/05/25 03:30:20;;;;;;;17.33;8.27;;;14.50;63.10;;;;;;5040247;28;20041;-68
2021/05/25 03:32:46;;;;;;;14.88;8.23;;;14.50;63.20;;;;;;5039146;28;20048;-69
2021/05/25 03:35:14;;;;;;;14.05;8.57;;;14.50;63.10;;;;;;5038760;28;20036;-67
2021/05/25 03:37:39;;;;;;;17.13;8.98;;;14.50;63.10;;;;;;5047909;28;20041;-68
2021/05/25 03:40:07;;;;;;;17.58;8.50;;;14.50;63.20;;;;;;5034418;28;20513;-69
2021/05/25 03:42:33;;;;;;;15.57;8.63;;;14.50;63.20;;;;;;5045788;28;20451;-68
2021/05/25 03:44:59;;;;;;;14.40;8.90;;;14.50;63.20;;;;;;5044604;28;20060;-67
2021/05/25 03:47:27;;;;;;;13.70;8.55;;;14.50;63.20;;;;;;5041238;28;20089;-68
2021/05/25 03:49:54;;;;;;;15.25;8.68;;;14.50;63.40;;;;;;5036902;28;20055;-68
2021/05/25 03:52:20;;;;;;;13.95;9.13;;;14.50;63.40;;;;;;5047275;28;20624;-68
2021/05/25 03:54:58;;;;;;;17.52;9.35;;;14.50;63.40;;;;;;5043180;28;20039;-69
2021/05/25 03:59:55;;;;;;;17.17;9.90;;;14.50;63.60;;;;;;5040079;28;20118;-68
2021/05/25 04:02:23;;;;;;;17.13;9.80;;;14.50;63.60;;;;;;5044184;28;21752;-68
2021/05/25 04:04:50;;;;;;;15.73;9.73;;;14.60;63.70;;;;;;5033374;28;20047;-69
2021/05/25 04:07:19;;;;;;;14.90;9.05;;;14.60;63.60;;;;;;5042827;28;20047;-68
2021/05/25 04:09:46;;;;;;;17.15;9.68;;;14.60;63.50;;;;;;5045766;28;20036;-68
2021/05/25 04:12:14;;;;;;;14.63;9.50;;;14.50;63.60;;;;;;5048963;28;20029;-67
2021/05/25 04:14:44;;;;;;;18.70;9.70;;;14.60;63.80;;;;;;5045170;28;20131;-69
2021/05/25 04:17:13;;;;;;;14.43;9.00;;;14.60;63.90;;;;;;5035191;28;20102;-67
2021/05/25 04:19:38;;;;;;;20.70;9.77;;;14.60;64.00;;;;;;5029826;28;20090;-69
2021/05/25 04:22:08;;;;;;;17.33;9.63;;;14.70;64.00;;;;;;5033805;28;20631;-68
2021/05/25 04:24:36;;;;;;;21.98;10.57;;;14.80;63.90;;;;;;5040536;28;20610;-68
2021/05/25 04:27:06;;;;;;;16.95;10.10;;;14.80;63.60;;;;;;5033019;28;20033;-69
2021/05/25 04:29:34;;;;;;;17.05;10.48;;;14.80;63.80;;;;;;5038980;28;20124;-69
2021/05/25 04:32:05;;;;;;;16.08;10.18;;;14.80;63.70;;;;;;5049085;28;20029;-67
2021/05/25 04:34:30;;;;;;;15.25;9.90;;;14.80;63.60;;;;;;5047329;28;20050;-67
2021/05/25 04:36:58;;;;;;;16.90;9.73;;;14.80;63.60;;;;;;5040686;28;20045;-69
2021/05/25 04:39:23;;;;;;;15.55;9.40;;;14.80;64.30;;;;;;5041036;28;20090;-67
2021/05/25 04:41:53;;;;;;;18.25;10.30;;;14.80;63.50;;;;;;5039987;28;20037;-68
2021/05/25 04:44:21;;;;;;;14.27;8.93;;;14.80;63.60;;;;;;5036734;28;20781;-68
2021/05/25 04:46:49;;;;;;;17.27;9.02;;;14.80;63.60;;;;;;5048300;28;20139;-68
2021/05/25 04:49:14;;;;;;;14.90;8.85;;;14.80;63.80;;;;;;5044743;28;20044;-67
2021/05/25 04:51:40;;;;;;;14.93;9.02;;;14.80;63.90;;;;;;5054082;28;20032;-69
2021/05/25 04:54:06;;;;;;;14.57;8.85;;;14.90;64.00;;;;;;5055462;28;20075;-67
2021/05/25 04:56:34;;;;;;;11.20;7.72;;;14.90;63.80;;;;;;5048786;28;20037;-67
2021/05/25 04:58:59;;;;;;;11.70;7.55;;;14.90;63.50;;;;;;5051124;28;20449;-69
2021/05/25 05:01:30;;;;;;;9.32;6.35;;;14.80;63.30;;;;;;5048010;28;20094;-69
2021/05/25 05:03:57;;;;;;;8.77;6.35;;;14.80;63.30;;;;;;5058366;28;20039;-68
2021/05/25 05:06:25;;;;;;;7.50;5.43;;;14.70;63.20;;;;;;5053714;28;22299;-68
2021/05/25 05:08:51;;;;;;;8.65;4.97;;;14.70;63.10;;;;;;5049329;28;20682;-70
2021/05/25 05:11:18;;;;;;;7.63;5.05;;;14.60;63.00;;;;;;5061711;28;20032;-67
2021/05/25 05:13:46;;;;;;;10.63;5.68;;;14.60;63.10;;;;;;5052539;28;20544;-68
2021/05/25 05:16:12;;;;;;;8.65;4.90;;;14.50;63.20;;;;;;5051971;28;20057;-68
2021/05/25 05:18:38;;;;;;;9.10;5.28;;;14.50;63.30;;;;;;5055675;28;20035;-68
2021/05/25 05:21:06;;;;;;;14.60;5.88;;;14.50;63.30;;;;;;5049130;28;20045;-69
2021/05/25 05:23:35;;;;;;;11.00;5.85;;;14.50;63.20;;;;;;5058510;28;20040;-70
2021/05/25 05:26:04;;;;;;;9.40;5.53;;;14.50;63.20;;;;;;5046267;28;20080;-68
2021/05/25 05:28:34;;;;;;;11.07;6.32;;;14.50;63.20;;;;;;5054779;28;20051;-67
2021/05/25 05:31:00;;;;;;;10.43;6.72;;;14.50;63.00;;;;;;5042893;28;20040;-69
2021/05/25 05:33:27;;;;;;;12.05;6.82;;;14.40;63.10;;;;;;5053401;28;20079;-67
2021/05/25 05:35:52;;;;;;;10.63;6.22;;;14.40;63.30;;;;;;5058867;28;20082;-68
2021/05/25 05:38:18;;;;;;;12.50;6.78;;;14.40;63.20;;;;;;5054283;28;20410;-68
2021/05/25 05:40:47;;;;;;;12.57;6.93;;;14.40;63.20;;;;;;5046597;28;20075;-67
2021/05/25 05:43:12;;;;;;;13.30;6.90;;;14.30;63.20;;;;;;5052086;28;20119;-69
2021/05/25 05:45:40;;;;;;;11.07;6.68;;;14.30;63.30;;;;;;5042914;28;20047;-67
2021/05/25 05:48:08;;;;;;;12.95;7.30;;;14.30;63.40;;;;;;5045703;28;20180;-67
2021/05/25 05:50:34;;;;;;;16.02;8.23;;;14.30;63.40;;;;;;5044789;28;20391;-69
2021/05/25 05:53:02;;;;;;;14.30;8.32;;;14.30;63.50;;;;;;5052326;28;20115;-68
2021/05/25 05:55:28;;;;;;;14.75;8.18;;;14.30;63.30;;;;;;5031505;28;20163;-71
2021/05/25 05:57:53;;;;;;;15.07;8.68;;;14.30;63.50;;;;;;5030396;28;20117;-69
2021/05/25 06:00:23;;;;;;;15.98;9.23;;;14.30;63.60;;;;;;5047911;28;20099;-69
2021/05/25 06:02:48;;;;;;;15.48;9.75;;;14.30;63.60;;;;;;5054254;28;20029;-68
2021/05/25 06:05:14;;;;;;;16.13;10.27;;;14.40;63.60;;;;;;5042239;28;20341;-70
2021/05/25 06:07:44;;;;;;;21.80;11.57;;;14.40;63.50;;;;;;5044254;28;20147;-70
2021/05/25 06:10:13;;;;;;;22.15;12.15;;;14.40;63.40;;;;;;5046331;28;20032;-69
2021/05/25 06:12:41;;;;;;;19.83;11.27;;;14.40;63.40;;;;;;5052321;28;20040;-67
2021/05/25 06:15:10;;;;;;;21.88;11.93;;;14.40;63.40;;;;;;5044150;28;20036;-68
2021/05/25 06:17:38;;;;;;;19.77;12.18;;;14.30;63.10;;;;;;5045538;28;20529;-71
2021/05/25 06:20:04;;;;;;;23.48;12.52;;;14.30;63.30;;;;;;5043966;28;20056;-67
2021/05/25 06:22:30;;;;;;;21.88;11.00;;;14.30;63.30;;;;;;5041310;28;20177;-69
2021/05/25 06:24:57;;;;;;;21.58;12.00;;;14.30;63.40;;;;;;5048821;28;20040;-68
2021/05/25 06:27:25;;;;;;;21.77;12.70;;;14.30;63.40;;;;;;5037588;28;20774;-68
2021/05/25 06:29:53;;;;;;;24.83;13.02;;;14.30;63.60;;;;;;5031770;28;20033;-68
2021/05/25 06:32:18;;;;;;;25.08;12.88;;;14.30;63.50;;;;;;5039673;28;20038;-69
2021/05/25 06:34:44;;;;;;;22.98;12.55;;;14.30;63.30;;;;;;5042754;28;20048;-69
2021/05/25 06:37:12;;;;;;;24.67;13.80;;;14.30;63.30;;;;;;5045096;28;20040;-68
2021/05/25 06:39:40;;;;;;;25.17;13.18;;;14.30;63.60;;;;;;5047216;28;20037;-68
2021/05/25 06:42:07;;;;;;;24.63;13.60;;;14.30;63.70;;;;;;5035354;28;20041;-68
2021/05/25 06:44:33;;;;;;;22.02;12.68;;;14.40;63.80;;;;;;5043101;28;20119;-70
2021/05/25 06:47:02;;;;;;;22.50;13.82;;;14.50;64.20;;;;;;5037950;28;20120;-70
2021/05/25 06:49:27;;;;;;;24.77;13.80;;;14.50;63.50;;;;;;5036766;28;20125;-68
2021/05/25 06:51:53;;;;;;;23.85;14.15;;;14.50;63.60;;;;;;5041990;28;20044;-68
2021/05/25 06:54:19;;;;;;;22.92;13.52;;;14.50;63.50;;;;;;5044435;28;20044;-69
2021/05/25 06:56:45;;;;;;;25.65;14.10;;;14.50;63.30;;;;;;5036314;28;20033;-70
2021/05/25 06:59:12;;;;;;;26.20;14.50;;;14.50;63.40;;;;;;5030083;28;20025;-68
2021/05/25 07:01:41;;;;;;;25.35;15.25;;;14.50;63.50;;;;;;5037304;28;20035;-68
2021/05/25 07:04:06;;;;;;;30.08;15.20;;;14.50;63.50;;;;;;5024994;28;20071;-71
2021/05/25 07:06:34;;;;;;;22.55;14.48;;;14.60;63.50;;;;;;5037074;28;20654;-69
2021/05/25 07:09:03;;;;;;;21.05;12.82;;;14.60;63.40;;;;;;5030448;28;20101;-69
2021/05/25 07:11:28;;;;;;;24.40;11.52;;;14.60;63.20;;;;;;5034135;28;20076;-70
2021/05/25 07:13:54;;;;;;;16.65;9.57;;;14.60;63.20;;;;;;5028809;28;20131;-71
2021/05/25 07:16:22;;;;;;;12.95;7.88;;;14.60;63.20;;;;;;5031430;28;20147;-69
2021/05/25 07:18:48;;;;;;;10.73;7.80;;;14.60;63.10;;;;;;5028074;27;20037;-71
2021/05/25 07:21:15;;;;;;;8.55;6.50;;;14.70;63.20;;;;;;5041713;28;20098;-71
2021/05/25 07:23:43;;;;;;;9.82;6.47;;;14.70;63.10;;;;;;5040601;28;20036;-68
2021/05/25 07:26:11;;;;;;;12.00;6.25;;;14.70;63.00;;;;;;5046967;28;20047;-69
2021/05/25 07:28:39;;;;;;;17.55;7.18;;;14.80;62.80;;;;;;5037430;28;20033;-70
2021/05/25 07:31:07;;;;;;;11.93;6.53;;;14.80;62.80;;;;;;5035016;28;20526;-70
2021/05/25 07:33:32;;;;;;;6.95;4.85;;;14.90;62.80;;;;;;5039771;28;20041;-68
2021/05/25 07:36:03;;;;;;;7.70;5.18;;;14.90;62.60;;;;;;5042858;28;20059;-69
2021/05/25 07:38:28;;;;;;;9.15;5.07;;;14.90;62.50;;;;;;5047210;28;21504;-69
2021/05/25 07:40:57;;;;;;;9.88;4.05;;;14.90;62.50;;;;;;5048268;28;20155;-69
2021/05/25 07:43:25;;;;;;;5.50;4.00;;;15.00;62.50;;;;;;5050165;28;20521;-69
2021/05/25 07:45:50;;;;;;;6.15;4.05;;;15.00;62.40;;;;;;5050605;28;20055;-68
2021/05/25 07:48:16;;;;;;;4.28;3.50;;;15.10;62.70;;;;;;5037604;28;20108;-69
2021/05/25 07:50:44;;;;;;;5.40;3.58;;;15.20;62.70;;;;;;5040163;28;20124;-69
2021/05/25 07:53:09;;;;;;;6.38;2.70;;;15.30;62.70;;;;;;5037756;28;20044;-70
2021/05/25 07:55:38;;;;;;;4.05;2.40;;;15.40;62.40;;;;;;5046995;28;20391;-68
2021/05/25 07:58:06;;;;;;;11.45;2.53;;;15.40;61.30;;;;;;5029684;28;21854;-68
2021/05/25 08:00:32;;;;;;;4.25;1.90;;;15.30;60.90;;;;;;5031285;28;20123;-70
2021/05/25 08:02:58;;;;;;;3.40;2.28;;;15.20;60.80;;;;;;5041339;28;20036;-68
2021/05/25 08:05:27;;;;;;;2.60;2.00;;;15.20;61.10;;;;;;5041365;28;20797;-69
2021/05/25 08:07:52;;;;;;;2.80;2.05;;;15.20;61.30;;;;;;5045651;28;20140;-68
2021/05/25 08:10:18;;;;;;;4.43;2.08;;;15.20;61.20;;;;;;5051390;28;20033;-72
2021/05/25 08:12:44;;;;;;;2.65;1.90;;;15.20;60.90;;;;;;5058513;28;20040;-69
2021/05/25 08:15:13;;;;;;;4.35;2.15;;;15.20;61.10;;;;;;5045998;28;20686;-69
2021/05/25 08:23:03;;;;;;;2.22;1.67;;;15.40;61.50;;;;;;5046054;28;20032;-69
2021/05/25 08:25:31;;;;;;;2.42;2.10;;;15.50;61.30;;;;;;5045018;28;20123;-71
2021/05/25 08:28:00;;;;;;;3.58;2.28;;;15.70;62.00;;;;;;5030329;28;21193;-70
2021/05/25 08:30:28;;;;;;;2.38;2.10;;;16.20;63.60;;;;;;5045328;28;20033;-70
2021/05/25 08:32:55;;;;;;;2.95;2.22;;;17.10;63.50;;;;;;5054474;28;20585;-70
2021/05/25 08:35:25;;;;;;;5.32;3.33;;;17.80;60.70;;;;;;5054721;28;20043;-69
2021/05/25 08:37:56;;;;;;;8.45;3.80;;;18.20;58.50;;;;;;5039221;28;20041;-71
2021/05/25 08:40:26;;;;;;;7.88;3.50;;;18.30;56.80;;;;;;5036000;28;20685;-69
2021/05/25 08:42:52;;;;;;;6.53;4.57;;;18.10;56.30;;;;;;5061203;28;20039;-71
2021/05/25 08:45:20;;;;;;;10.77;4.68;;;17.90;56.20;;;;;;5037749;28;20049;-69
2021/05/25 08:47:51;;;;;;;10.82;6.22;;;17.60;56.30;;;;;;5046175;28;20102;-69
2021/05/25 08:50:21;;;;;;;9.95;6.53;;;17.40;56.40;;;;;;5045077;28;20106;-71
2021/05/25 08:52:47;;;;;;;11.93;7.15;;;17.10;56.50;;;;;;5020146;28;20040;-71
2021/05/25 08:55:14;;;;;;;14.43;7.57;;;16.90;56.80;;;;;;5039814;28;20040;-70
2021/05/25 08:57:41;;;;;;;14.15;7.50;;;16.80;57.10;;;;;;5027573;28;20263;-70
2021/05/25 09:00:09;;;;;;;17.13;8.13;;;16.60;57.20;;;;;;5030720;28;20591;-68
2021/05/25 09:02:37;;;;;;;13.40;7.68;;;16.50;57.70;;;;;;5027618;28;20052;-69
2021/05/25 09:05:05;;;;;;;24.98;8.25;;;16.40;58.10;;;;;;5025687;28;20047;-70
2021/05/25 09:07:56;;;;;;;18.17;8.68;;;16.30;58.00;;;;;;5024384;28;20040;-69
2021/05/25 09:10:40;;;;;;;17.23;8.63;;;16.20;58.10;;;;;;5020562;28;20874;-68
2021/05/25 09:13:21;;;;;;;18.25;9.20;;;16.20;58.90;;;;;;5029120;28;20043;-68
2021/05/25 09:15:56;;;;;;;12.68;8.40;;;16.50;59.80;;;;;;5022078;28;20119;-71
2021/05/25 09:18:25;;;;;;;14.98;8.05;;;16.80;59.90;;;;;;5029616;28;20090;-69
2021/05/25 09:20:55;;;;;;;16.02;8.52;;;17.10;58.50;;;;;;5020058;28;20040;-69
2021/05/25 09:23:22;;;;;;;13.80;8.65;;;17.30;57.20;;;;;;5027767;28;20089;-72
2021/05/25 09:26:04;;;;;;;16.00;8.82;;;17.20;56.80;;;;;;5027058;28;20575;-70
2021/05/25 09:28:30;;;;;;;18.48;9.95;;;17.20;57.00;;;;;;5027180;28;20036;-69
2021/05/25 09:30:58;;;;;;;16.15;9.93;;;17.10;57.10;;;;;;5030624;28;20063;-69
2021/05/25 09:33:24;;;;;;;15.45;10.43;;;17.00;57.30;;;;;;5028307;28;20140;-69
2021/05/25 09:35:52;;;;;;;15.57;9.82;;;16.90;57.80;;;;;;5023854;28;20048;-70
2021/05/25 09:38:21;;;;;;;18.00;10.68;;;16.80;57.20;;;;;;5028167;28;20036;-70
2021/05/25 09:40:51;;;;;;;18.90;10.60;;;16.60;57.40;;;;;;5035419;28;20136;-67
2021/05/25 09:43:27;;;;;;;19.17;9.93;;;16.50;57.70;;;;;;5032352;28;20047;-69
2021/05/25 09:46:00;;;;;;;17.58;11.25;;;16.40;57.90;;;;;;5022996;28;20143;-72
2021/05/25 09:48:52;;;;;;;21.30;10.48;;;16.40;58.10;;;;;;5021555;28;20037;-70
2021/05/25 09:51:28;;;;;;;19.95;12.13;;;16.40;58.60;;;;;;5035600;28;20713;-71
2021/05/25 09:53:56;;;;;;;18.60;10.93;;;16.50;59.30;;;;;;5028456;28;20690;-70
2021/05/25 09:56:35;;;;;;;17.73;11.45;;;16.70;59.70;;;;;;5024462;28;20044;-68
2021/05/25 09:59:01;;;;;;;17.27;9.95;;;17.00;59.30;;;;;;5028883;28;20039;-70
2021/05/25 10:01:34;;;;;;;16.40;10.73;;;17.20;58.50;;;;;;5033235;28;20036;-71
2021/05/25 10:04:13;;;;;;;16.90;10.00;;;17.30;57.90;;;;;;5032956;28;20044;-69
2021/05/25 10:06:41;;;;;;;16.17;9.55;;;17.30;57.70;;;;;;5031940;28;23321;-70
2021/05/25 10:09:08;;;;;;;16.63;9.43;;;17.20;56.20;;;;;;5034160;28;20060;-71
2021/05/25 10:11:40;;;;;;;23.38;10.13;;;17.00;56.80;;;;;;5032281;28;20580;-71
2021/05/25 10:14:08;;;;;;;16.92;10.30;;;17.00;57.40;;;;;;4894823;28;3967783;-70
2021/05/25 10:16:36;;;;;;;19.92;11.48;;;;;;;;;;5029725;28;20072;-73
2021/05/25 10:19:26;;;;;;;16.00;11.05;;;17.10;58.20;;;;;;5030213;28;20036;-71
2021/05/25 10:21:55;;;;;;;17.63;10.48;;;17.50;58.80;;;;;;5032965;28;20094;-69
2021/05/25 10:24:23;;;;;;;13.30;9.57;;;17.90;58.80;;;;;;5026166;28;20048;-71
2021/05/25 10:26:51;;;;;;;10.98;7.90;;;18.40;58.00;;;;;;5025707;28;20062;-72
2021/05/25 10:29:17;;;;;;;15.48;8.70;;;18.90;56.60;;;;;;5027351;28;20041;-69
2021/05/25 10:31:48;;;;;;;12.52;7.90;;;19.20;56.20;;;;;;5026966;28;20113;-70
2021/05/25 10:34:21;;;;;;;14.07;7.53;;;19.60;55.60;;;;;;5029193;28;20079;-69
2021/05/25 10:36:53;;;;;;;14.15;8.80;;;19.90;53.80;;;;;;5025506;28;20909;-69
2021/05/25 10:39:36;;;;;;;14.82;8.20;;;19.90;52.90;;;;;;5026424;28;20056;-69
2021/05/25 10:42:20;;;;;;;11.73;8.38;;;19.60;52.50;;;;;;5022309;28;20716;-71
2021/05/25 10:45:15;;;;;;;16.38;8.98;;;19.40;52.60;;;;;;5023817;28;21060;-70
2021/05/25 10:48:07;;;;;;;14.90;9.45;;;19.10;53.00;;;;;;5003090;28;20090;-70
2021/05/25 10:50:44;;;;;;;11.80;7.28;;;19.20;55.20;;;;;;5017513;28;20060;-69
2021/05/25 10:53:16;;;;;;;10.18;7.30;;;19.80;55.70;;;;;;5019510;28;20028;-69
2021/05/25 10:55:43;;;;;;;13.68;7.32;;;20.40;53.90;;;;;;5023081;28;20040;-70
2021/05/25 10:58:36;;;;;;;14.63;7.00;;;20.80;52.90;;;;;;5034139;28;20131;-71
2021/05/25 11:01:06;;;;;;;14.50;7.30;;;21.00;51.00;;;;;;5018308;28;20037;-69
2021/05/25 11:03:35;;;;;;;21.48;7.05;;;20.80;50.20;;;;;;5025563;28;21186;-70
2021/05/25 11:06:06;;;;;;;10.48;6.82;;;20.50;49.60;;;;;;5023783;28;20130;-68
2021/05/25 11:08:38;;;;;;;13.55;7.75;;;20.10;49.50;;;;;;5029177;28;20152;-70
2021/05/25 11:11:25;;;;;;;13.82;7.75;;;19.60;50.50;;;;;;5022896;28;20507;-69
2021/05/25 11:13:52;;;;;;;14.82;6.85;;;19.30;50.90;;;;;;5028389;28;20048;-69
2021/05/25 11:16:28;;;;;;;14.38;6.35;;;18.90;51.50;;;;;;5025906;28;20533;-69
2021/05/25 11:19:23;;;;;;;10.05;6.38;;;18.70;52.00;;;;;;5028422;28;20070;-69
2021/05/25 11:24:58;;;;;;;11.90;6.13;;;18.30;52.90;;;;;;5019767;28;20037;-71
2021/05/25 11:27:34;;;;;;;11.05;6.25;;;18.20;53.80;;;;;;5017645;28;20040;-69
2021/05/25 11:30:12;;;;;;;8.57;3.97;;;18.40;54.80;;;;;;5016315;28;20090;-68
2021/05/25 11:32:48;;;;;;;9.75;3.90;;;18.70;53.70;;;;;;5019599;28;22339;-69
2021/05/25 11:35:18;;;;;;;5.93;3.15;;;19.00;53.40;;;;;;5025198;28;20587;-70
2021/05/25 11:37:48;;;;;;;4.15;3.20;;;19.40;53.10;;;;;;5020714;28;20120;-68
2021/05/25 11:40:19;;;;;;;5.22;2.65;;;19.80;53.10;;;;;;5020452;28;20117;-69
2021/05/25 11:42:51;;;;;;;6.88;2.28;;;20.30;52.30;;;;;;5018918;28;20037;-69
2021/05/25 11:45:24;;;;;;;2.65;2.05;;;20.80;52.30;;;;;;5017946;28;20139;-69
2021/05/25 11:48:02;;;;;;;6.70;2.30;;;21.30;50.30;;;;;;5014996;28;20036;-70
2021/05/25 11:50:37;;;;;;;2.78;2.45;;;21.70;49.50;;;;;;5016509;28;20059;-69
2021/05/25 11:53:06;;;;;;;5.97;3.30;;;21.90;48.80;;;;;;5016451;28;20159;-69
2021/05/25 11:55:35;;;;;;;6.82;3.40;;;22.00;46.60;;;;;;5021017;28;20112;-67
2021/05/25 11:58:00;;;;;;;9.13;4.00;;;21.80;47.40;;;;;;5023844;28;20033;-68
2021/05/25 12:00:31;;;;;;;6.60;4.00;;;21.50;46.70;;;;;;5019711;28;20922;-68
2021/05/25 12:03:00;;;;;;;10.52;4.43;;;21.00;46.80;;;;;;5021222;28;20052;-69
2021/05/25 12:05:34;;;;;;;11.98;4.80;;;20.60;47.80;;;;;;5021288;28;20082;-69
2021/05/25 12:08:08;;;;;;;4.03;3.58;;;20.30;48.40;;;;;;5024053;28;20042;-70
2021/05/25 12:10:42;;;;;;;14.65;4.25;;;19.90;48.50;;;;;;5023206;28;20043;-70
2021/05/25 12:13:10;;;;;;;5.88;3.95;;;19.40;48.80;;;;;;5023076;28;20075;-69
2021/05/25 12:15:43;;;;;;;7.25;4.30;;;19.00;49.90;;;;;;5025078;28;20064;-69
2021/05/25 12:18:14;;;;;;;4.35;2.70;;;18.60;50.90;;;;;;5024360;28;20054;-71
2021/05/25 12:20:47;;;;;;;2.60;1.75;;;18.40;51.50;;;;;;5031480;28;20033;-69
2021/05/25 12:23:15;;;;;;;3.22;2.05;;;18.20;52.20;;;;;;5020802;28;20044;-68
2021/05/25 12:25:45;;;;;;;7.28;2.00;;;18.20;53.30;;;;;;5027888;28;20041;-69
2021/05/25 12:28:14;;;;;;;2.20;2.00;;;18.20;53.20;;;;;;5027488;28;20123;-69
2021/05/25 12:30:45;;;;;;;8.93;2.25;;;18.30;53.40;;;;;;5028617;28;20036;-70
2021/05/25 12:33:24;;;;;;;2.22;2.03;;;18.40;53.50;;;;;;5028056;28;20041;-69
2021/05/25 12:35:53;;;;;;;2.50;1.50;;;18.50;53.50;;;;;;5026925;28;20051;-69
2021/05/25 12:38:21;;;;;;;1.77;1.35;;;18.60;53.00;;;;;;5036524;28;20040;-69
2021/05/25 12:41:01;;;;;;;2.15;0.90;;;18.60;52.80;;;;;;5030816;28;20174;-70
2021/05/25 12:43:33;;;;;;;3.00;0.60;;;18.60;52.20;;;;;;5027374;28;20043;-69
2021/05/25 12:46:10;;;;;;;2.88;0.68;;;18.40;52.00;;;;;;5034010;28;20051;-70
2021/05/25 12:48:46;;;;;;;3.45;0.70;;;18.30;51.80;;;;;;5034511;28;20095;-70
2021/05/25 12:51:13;;;;;;;6.07;0.50;;;18.10;52.00;;;;;;5030499;28;20612;-69
2021/05/25 12:53:53;;;;;;;0.85;0.70;;;18.00;52.10;;;;;;5024396;28;20107;-69
2021/05/25 12:56:21;;;;;;;2.38;0.57;;;17.90;51.90;;;;;;5024669;28;20032;-69
2021/05/25 12:58:48;;;;;;;6.47;0.77;;;17.80;52.30;;;;;;5029513;28;20119;-69
2021/05/25 13:01:20;;;;;;;4.63;0.65;;;17.70;53.20;;;;;;5012647;28;20045;-69